Bena, Minnesota
Current Conditions -  °F | °C
As of 2:55 PM on Tuesday 27 Jan 2015 (Local Time) from KY49 Reporting Station
Broken Clouds Broken Clouds  
Wind Chill: 24°   Ceiling: 12000
Heat Index: 32°   Visibility: 10mi
Dew Point: 26°   Wind: 9mph
Humidity: 78%   Direction: 150°SSE
Pressure: 30.03"   Gusts: NA
Location:  47.34°N, 94.21°W
Report Text: KY49 272055Z AUTO 15008KT 10SM BKN120 00/M03 A3003 RMK AO2 T00001035
Loading
Personal Weather Stations






























Interactive Weather Map New forecast layout! Learn more

10-Day Weather Forecast

Advertisements
Track Severe Weather on mobile